Dunkirk, United Kingdom
Current Conditions -  °F | °C
As of 9:20 AM on Tuesday 21 Oct 2014 (Local Time) from EGMC Reporting Station
Scattered Clouds Scattered Clouds  
Wind Chill: 15°   Ceiling: Unl
Heat Index: 15°   Visibility: 6mi
Dew Point: 11°   Wind: 18mph
Humidity: 77%   Direction: 260°W
Pressure: 29.53"   Gusts: 30mph
Location:  51.29°N, 0.98°E
Report Text: EGMC 210820Z 26016G26KT 9999 SCT016 15/11 Q1000
Loading
Personal Weather Stations






























Interactive Weather Map
Tropical Storm Tracking
New forecast layout! Learn more

10-Day Weather Forecast

Advertisements
Track Severe Weather on mobile